createdAt,value
2017-11-15T00:01:02.551Z,16.60
2017-11-15T00:03:30.435Z,16.60
2017-11-15T00:05:58.363Z,16.60
2017-11-15T00:08:26.292Z,16.60
2017-11-15T00:10:54.402Z,16.60
2017-11-15T00:13:22.389Z,16.50
2017-11-15T00:15:50.297Z,16.50
2017-11-15T00:18:18.262Z,16.50
2017-11-15T00:20:46.166Z,16.60
2017-11-15T00:23:14.339Z,16.60
2017-11-15T00:25:42.223Z,16.50
2017-11-15T00:28:10.850Z,16.40
2017-11-15T00:30:38.839Z,16.40
2017-11-15T00:33:06.914Z,16.50
2017-11-15T00:35:34.790Z,16.50
2017-11-15T00:38:02.843Z,16.50
2017-11-15T00:40:30.770Z,16.50
2017-11-15T00:42:58.688Z,16.50
2017-11-15T00:45:26.590Z,16.50
2017-11-15T00:47:54.629Z,16.50
2017-11-15T00:50:22.531Z,16.50
2017-11-15T00:52:50.458Z,16.50
2017-11-15T00:55:18.487Z,16.50
2017-11-15T00:57:46.452Z,16.50
2017-11-15T01:00:14.595Z,16.50
2017-11-15T01:02:43.316Z,16.50
2017-11-15T01:05:11.342Z,16.50
2017-11-15T01:07:40.201Z,16.50
2017-11-15T01:10:08.114Z,16.50
2017-11-15T01:12:36.761Z,16.50
2017-11-15T01:15:04.872Z,16.50
2017-11-15T01:17:32.747Z,16.50
2017-11-15T01:20:01.590Z,16.50
2017-11-15T01:22:29.477Z,16.50
2017-11-15T01:24:57.458Z,16.50
2017-11-15T01:27:25.367Z,16.50
2017-11-15T01:29:53.287Z,16.50
2017-11-15T01:32:21.200Z,16.40
2017-11-15T01:34:49.755Z,16.40
2017-11-15T01:37:17.695Z,16.40
2017-11-15T01:39:45.617Z,16.50
2017-11-15T01:42:13.589Z,16.50
2017-11-15T01:44:41.506Z,16.40
2017-11-15T01:47:10.263Z,16.50
2017-11-15T01:49:38.156Z,16.40
2017-11-15T01:52:06.050Z,16.50
2017-11-15T01:54:34.092Z,16.50
2017-11-15T01:57:02.978Z,16.30
2017-11-15T01:59:31.029Z,16.30
2017-11-15T02:01:58.954Z,16.30
2017-11-15T02:04:26.820Z,16.30
2017-11-15T02:06:54.686Z,16.30
2017-11-15T02:09:22.580Z,16.20
2017-11-15T02:11:50.559Z,16.20
2017-11-15T02:14:18.553Z,16.20
2017-11-15T02:16:46.788Z,16.20
2017-11-15T02:19:14.726Z,16.10
2017-11-15T02:25:16.208Z,16.10
2017-11-15T02:27:44.174Z,16.10
2017-11-15T02:30:12.087Z,16.10
2017-11-15T02:32:40.101Z,16.10
2017-11-15T02:35:08.880Z,16.10
2017-11-15T02:37:36.884Z,16.10
2017-11-15T02:40:04.865Z,16.00
2017-11-15T02:42:32.927Z,16.10
2017-11-15T02:45:00.921Z,16.10
2017-11-15T02:51:01.387Z,16.10
2017-11-15T02:53:30.425Z,16.00
2017-11-15T03:07:21.128Z,16.00
2017-11-15T03:09:49.071Z,16.00
2017-11-15T03:12:17.766Z,16.00
2017-11-15T03:14:46.834Z,16.00
2017-11-15T03:17:14.882Z,16.00
2017-11-15T03:19:42.821Z,16.00
2017-11-15T03:22:10.773Z,16.00
2017-11-15T03:24:38.676Z,16.00
2017-11-15T03:27:08.437Z,16.10
2017-11-15T03:29:36.331Z,16.00
2017-11-15T03:32:04.267Z,16.10
2017-11-15T03:38:52.392Z,16.10
2017-11-15T03:48:24.555Z,16.00
2017-11-15T04:08:42.971Z,16.00
2017-11-15T04:11:12.902Z,16.00
2017-11-15T04:13:40.843Z,16.10
2017-11-15T04:16:08.715Z,16.00
2017-11-15T04:18:36.554Z,16.00
2017-11-15T04:21:04.486Z,16.10
2017-11-15T04:27:06.248Z,16.00
2017-11-15T04:29:34.179Z,16.10
2017-11-15T04:32:02.111Z,16.10
2017-11-15T04:34:30.056Z,16.10
2017-11-15T04:36:58.838Z,16.10
2017-11-15T04:39:26.777Z,16.00
2017-11-15T04:41:55.898Z,16.10
2017-11-15T04:44:23.862Z,16.10
2017-11-15T04:46:51.780Z,16.10
2017-11-15T04:49:19.729Z,16.10
2017-11-15T04:51:47.747Z,16.10
2017-11-15T04:54:15.762Z,16.20
2017-11-15T04:56:44.445Z,16.10
2017-11-15T04:59:12.378Z,16.10
2017-11-15T05:01:40.372Z,16.20
2017-11-15T05:04:08.300Z,16.10
2017-11-15T05:06:36.187Z,16.20
2017-11-15T05:09:04.158Z,16.20
2017-11-15T05:11:32.062Z,16.20
2017-11-15T05:14:00.024Z,16.20
2017-11-15T05:16:27.966Z,16.20
2017-11-15T05:18:56.706Z,16.20
2017-11-15T05:21:24.676Z,16.10
2017-11-15T05:23:52.996Z,16.20
2017-11-15T05:26:20.966Z,16.20
2017-11-15T05:28:48.988Z,16.20
2017-11-15T05:31:16.910Z,16.10
2017-11-15T05:33:45.036Z,16.10
2017-11-15T05:36:12.970Z,16.10
2017-11-15T05:38:41.273Z,16.10
2017-11-15T05:41:09.286Z,16.20
2017-11-15T05:43:37.436Z,16.10
2017-11-15T05:46:05.302Z,16.10
2017-11-15T05:48:33.197Z,16.10
2017-11-15T05:51:01.111Z,16.10
2017-11-15T05:53:29.076Z,16.10
2017-11-15T05:55:56.985Z,16.10
2017-11-15T05:58:24.870Z,16.10
2017-11-15T06:00:53.522Z,16.10
2017-11-15T06:03:21.477Z,16.00
2017-11-15T06:05:49.341Z,16.10
2017-11-15T06:08:17.216Z,16.10
2017-11-15T06:10:45.104Z,16.10
2017-11-15T06:13:13.023Z,16.10
2017-11-15T06:15:40.917Z,16.10
2017-11-15T06:18:08.930Z,16.10
2017-11-15T06:20:36.921Z,16.10
2017-11-15T06:23:04.841Z,16.10
2017-11-15T06:25:32.819Z,16.10
2017-11-15T06:28:00.763Z,16.10
2017-11-15T06:30:28.635Z,16.10
2017-11-15T06:32:56.766Z,16.10
2017-11-15T06:35:24.896Z,16.10
2017-11-15T06:37:53.037Z,16.10
2017-11-15T06:40:20.870Z,16.10
2017-11-15T06:42:48.748Z,16.20
2017-11-15T06:45:16.676Z,16.10
2017-11-15T06:47:44.605Z,16.10
2017-11-15T06:50:12.614Z,16.20
2017-11-15T06:52:40.460Z,16.20
2017-11-15T06:55:08.408Z,16.10
2017-11-15T06:57:36.262Z,16.10
2017-11-15T07:00:04.356Z,16.20
2017-11-15T07:02:32.238Z,16.10
2017-11-15T07:05:00.098Z,16.10
2017-11-15T07:07:27.972Z,16.10
2017-11-15T07:09:55.950Z,16.10
2017-11-15T07:12:23.943Z,16.10
2017-11-15T07:14:52.010Z,16.20
2017-11-15T07:17:19.900Z,16.20
2017-11-15T07:19:47.747Z,16.10
2017-11-15T07:22:15.577Z,16.20
2017-11-15T07:24:43.412Z,16.20
2017-11-15T07:27:11.393Z,16.20
2017-11-15T07:29:39.258Z,16.20
2017-11-15T07:32:07.097Z,16.10
2017-11-15T07:34:35.261Z,16.20
2017-11-15T07:37:03.157Z,16.20
2017-11-15T07:39:30.960Z,16.30
2017-11-15T07:41:58.861Z,16.30
2017-11-15T07:44:26.752Z,16.30
2017-11-15T07:46:54.645Z,16.30
2017-11-15T07:49:22.469Z,16.40
2017-11-15T07:51:50.353Z,16.40
2017-11-15T07:54:20.473Z,16.40
2017-11-15T07:56:48.473Z,16.40
2017-11-15T07:59:16.462Z,16.40
2017-11-15T08:01:44.397Z,16.40
2017-11-15T08:04:12.543Z,16.40
2017-11-15T08:06:40.468Z,16.50
2017-11-15T08:09:09.503Z,16.60
2017-11-15T08:14:12.474Z,16.60
2017-11-15T08:16:40.364Z,16.70
2017-11-15T08:19:08.244Z,16.80
2017-11-15T08:21:36.138Z,16.90
2017-11-15T08:24:04.091Z,16.90
2017-11-15T08:26:32.053Z,17.00
2017-11-15T08:29:00.120Z,17.10
2017-11-15T08:31:27.986Z,17.10
2017-11-15T08:33:55.885Z,17.10
2017-11-15T08:36:23.834Z,17.20
2017-11-15T08:38:51.736Z,17.30
2017-11-15T08:41:20.455Z,17.30
2017-11-15T08:43:48.998Z,17.40
2017-11-15T08:46:16.934Z,17.40
2017-11-15T08:48:44.841Z,17.50
2017-11-15T08:51:12.704Z,17.60
2017-11-15T08:53:40.635Z,17.60
2017-11-15T08:56:08.565Z,17.70
2017-11-15T08:58:38.144Z,17.80
2017-11-15T09:01:07.729Z,17.80
2017-11-15T09:03:35.772Z,17.80
2017-11-15T09:06:04.961Z,18.00
2017-11-15T09:08:32.977Z,17.90
2017-11-15T09:11:00.824Z,18.00
2017-11-15T09:13:28.667Z,18.10
2017-11-15T09:15:56.557Z,18.10
2017-11-15T09:18:24.436Z,18.20
2017-11-15T09:20:52.302Z,18.30
2017-11-15T09:23:20.304Z,18.30
2017-11-15T09:25:48.756Z,18.40
2017-11-15T09:28:19.944Z,18.50
2017-11-15T09:30:51.770Z,18.50
2017-11-15T09:33:20.422Z,18.60
2017-11-15T09:35:48.310Z,18.60
2017-11-15T09:38:16.203Z,18.70
2017-11-15T09:40:44.828Z,18.70
2017-11-15T09:43:12.705Z,18.70
2017-11-15T09:45:40.643Z,18.80
2017-11-15T09:48:08.517Z,18.80
2017-11-15T09:50:36.610Z,18.90
2017-11-15T09:53:04.461Z,18.90
2017-11-15T09:55:32.368Z,18.90
2017-11-15T09:58:00.389Z,18.90
2017-11-15T10:00:28.236Z,18.90
2017-11-15T10:02:56.945Z,19.00
2017-11-15T10:05:24.865Z,18.90
2017-11-15T10:07:53.523Z,19.00
2017-11-15T10:10:21.516Z,18.90
2017-11-15T10:12:49.459Z,18.90
2017-11-15T10:15:17.323Z,19.00
2017-11-15T10:17:45.166Z,19.00
2017-11-15T10:20:12.985Z,19.00
2017-11-15T10:22:40.847Z,19.00
2017-11-15T10:25:08.661Z,19.00
2017-11-15T10:27:36.523Z,19.00
2017-11-15T10:30:04.428Z,19.10
2017-11-15T10:32:32.272Z,19.10
2017-11-15T10:35:00.484Z,19.10
2017-11-15T10:37:28.315Z,19.10
2017-11-15T10:39:56.214Z,19.20
2017-11-15T10:42:24.084Z,19.10
2017-11-15T10:44:51.973Z,19.10
2017-11-15T10:47:20.570Z,19.00
2017-11-15T10:49:48.449Z,19.00
2017-11-15T10:52:18.000Z,19.00
2017-11-15T10:54:45.862Z,19.00
2017-11-15T10:59:47.832Z,18.90
2017-11-15T11:02:15.875Z,18.90
2017-11-15T11:04:43.823Z,18.90
2017-11-15T11:07:12.502Z,18.90
2017-11-15T11:09:42.105Z,18.90
2017-11-15T11:12:10.876Z,19.00
2017-11-15T11:14:38.891Z,19.00
2017-11-15T11:17:06.828Z,19.00
2017-11-15T11:19:36.721Z,19.00
2017-11-15T11:22:07.324Z,19.00
2017-11-15T11:24:40.563Z,19.00
2017-11-15T11:27:09.345Z,19.10
2017-11-15T11:29:39.942Z,19.10
2017-11-15T11:32:09.190Z,19.10
2017-11-15T11:34:38.296Z,19.10
2017-11-15T11:37:06.966Z,19.10
2017-11-15T11:39:35.491Z,19.20
2017-11-15T11:42:04.658Z,19.30
2017-11-15T11:44:32.580Z,19.30
2017-11-15T11:47:00.441Z,19.30
2017-11-15T11:49:28.332Z,19.30
2017-11-15T11:51:57.050Z,19.30
2017-11-15T11:54:25.094Z,19.30
2017-11-15T11:56:52.936Z,19.30
2017-11-15T11:59:20.796Z,19.20
2017-11-15T12:01:48.647Z,19.20
2017-11-15T12:04:16.485Z,19.20
2017-11-15T12:06:44.365Z,19.20
2017-11-15T12:09:12.357Z,19.30
2017-11-15T12:11:40.325Z,19.30
2017-11-15T12:14:08.265Z,19.20
2017-11-15T12:16:36.227Z,19.20
2017-11-15T12:19:04.173Z,19.20
2017-11-15T12:21:33.098Z,19.20
2017-11-15T12:24:01.009Z,19.20
2017-11-15T12:26:28.854Z,19.20
2017-11-15T12:28:56.819Z,19.10
2017-11-15T12:31:24.894Z,19.20
2017-11-15T12:33:52.821Z,19.20
2017-11-15T12:36:20.937Z,19.20
2017-11-15T12:38:48.921Z,19.30
2017-11-15T12:41:17.693Z,19.20
2017-11-15T12:43:45.592Z,19.10
2017-11-15T12:46:14.910Z,19.20
2017-11-15T12:48:42.868Z,19.20
2017-11-15T12:51:13.098Z,19.20
2017-11-15T12:53:44.133Z,19.20
2017-11-15T12:56:12.964Z,19.20
2017-11-15T12:58:41.137Z,19.30
2017-11-15T13:01:09.061Z,19.30
2017-11-15T13:03:37.687Z,19.30
2017-11-15T13:06:05.561Z,19.30
2017-11-15T13:08:33.395Z,19.20
2017-11-15T13:11:01.397Z,19.10
2017-11-15T13:13:29.420Z,19.10
2017-11-15T13:15:58.096Z,19.10
2017-11-15T13:18:26.688Z,19.10
2017-11-15T13:20:55.453Z,19.10
2017-11-15T13:23:23.484Z,19.10
2017-11-15T13:25:51.423Z,19.00
2017-11-15T13:28:19.406Z,19.00
2017-11-15T13:30:47.297Z,19.00
2017-11-15T13:33:15.493Z,19.00
2017-11-15T13:35:43.426Z,19.00
2017-11-15T13:38:11.269Z,19.00
2017-11-15T13:40:39.201Z,19.10
2017-11-15T13:43:07.271Z,19.10
2017-11-15T13:45:35.377Z,19.10
2017-11-15T13:48:03.298Z,19.10
2017-11-15T13:50:31.232Z,19.10
2017-11-15T13:52:59.113Z,19.10
2017-11-15T13:55:26.983Z,19.10
2017-11-15T13:57:54.895Z,19.10
2017-11-15T14:00:23.602Z,19.10
2017-11-15T14:02:56.977Z,19.00
2017-11-15T14:05:25.719Z,19.00
2017-11-15T14:07:53.545Z,19.00
2017-11-15T14:10:22.647Z,18.90
2017-11-15T14:12:50.639Z,18.90
2017-11-15T14:15:19.706Z,18.90
2017-11-15T14:17:47.687Z,18.90
2017-11-15T14:20:16.125Z,18.90
2017-11-15T14:22:45.406Z,18.90
2017-11-15T14:25:13.408Z,18.80
2017-11-15T14:27:42.443Z,18.80
2017-11-15T14:30:10.368Z,18.80
2017-11-15T14:32:38.962Z,18.80
2017-11-15T14:35:07.582Z,18.80
2017-11-15T14:37:35.486Z,18.80
2017-11-15T14:40:03.415Z,18.80
2017-11-15T14:42:31.297Z,18.80
2017-11-15T14:44:59.428Z,18.80
2017-11-15T14:47:27.470Z,18.80
2017-11-15T14:49:55.948Z,18.80
2017-11-15T14:52:27.639Z,18.80
2017-11-15T14:54:56.899Z,18.70
2017-11-15T14:57:24.819Z,18.80
2017-11-15T14:59:52.729Z,18.70
2017-11-15T15:02:20.591Z,18.60
2017-11-15T15:04:48.552Z,18.70
2017-11-15T15:07:16.467Z,18.70
2017-11-15T15:09:44.778Z,18.70
2017-11-15T15:12:12.617Z,18.70
2017-11-15T15:14:40.495Z,18.70
2017-11-15T15:17:08.311Z,18.60
2017-11-15T15:19:37.393Z,18.50
2017-11-15T15:22:05.308Z,18.50
2017-11-15T15:24:33.920Z,18.50
2017-11-15T15:27:06.088Z,18.50
2017-11-15T15:29:36.434Z,18.50
2017-11-15T15:32:05.335Z,18.40
2017-11-15T15:34:33.306Z,18.40
2017-11-15T15:37:01.363Z,18.40
2017-11-15T15:39:32.302Z,18.40
2017-11-15T15:42:00.190Z,18.30
2017-11-15T15:44:28.090Z,18.40
2017-11-15T15:46:55.916Z,18.30
2017-11-15T15:49:37.321Z,18.30
2017-11-15T15:52:05.904Z,18.30
2017-11-15T15:54:34.267Z,18.30
2017-11-15T15:57:06.450Z,18.30
2017-11-15T15:59:39.478Z,18.30
2017-11-15T16:02:07.390Z,18.30
2017-11-15T16:04:35.219Z,18.20
2017-11-15T16:07:03.248Z,18.20
2017-11-15T16:09:31.257Z,18.30
2017-11-15T16:11:59.847Z,18.30
2017-11-15T16:14:27.846Z,18.20
2017-11-15T16:17:00.542Z,18.20
2017-11-15T16:19:28.467Z,18.20
2017-11-15T16:21:57.027Z,18.20
2017-11-15T16:24:24.875Z,18.20
2017-11-15T16:26:53.852Z,18.20
2017-11-15T16:29:22.568Z,18.20
2017-11-15T16:31:50.440Z,18.20
2017-11-15T16:34:18.406Z,18.20
2017-11-15T16:36:46.381Z,18.20
2017-11-15T16:39:14.290Z,18.20
2017-11-15T16:41:44.061Z,18.20
2017-11-15T16:44:12.804Z,18.20
2017-11-15T16:46:41.065Z,18.20
2017-11-15T16:49:09.663Z,18.20
2017-11-15T16:51:38.241Z,18.20
2017-11-15T16:54:08.486Z,18.20
2017-11-15T16:56:36.314Z,18.20
2017-11-15T16:59:04.227Z,18.20
2017-11-15T17:01:32.399Z,18.20
2017-11-15T17:04:00.374Z,18.20
2017-11-15T17:06:28.247Z,18.20
2017-11-15T17:08:56.988Z,18.20
2017-11-15T17:11:24.896Z,18.20
2017-11-15T17:13:52.789Z,18.20
2017-11-15T17:16:20.749Z,18.20
2017-11-15T17:18:48.653Z,18.20
2017-11-15T17:21:17.321Z,18.30
2017-11-15T17:23:46.269Z,18.20
2017-11-15T17:26:14.113Z,18.20
2017-11-15T17:28:42.711Z,18.30
2017-11-15T17:31:10.791Z,18.30
2017-11-15T17:33:38.655Z,18.40
2017-11-15T17:36:06.488Z,18.40
2017-11-15T17:38:35.164Z,18.40
2017-11-15T17:41:03.802Z,18.30
2017-11-15T17:43:32.126Z,18.30
2017-11-15T17:46:00.113Z,18.30
2017-11-15T17:48:29.574Z,18.30
2017-11-15T17:50:57.508Z,18.30
2017-11-15T17:53:25.396Z,18.30
2017-11-15T17:55:53.293Z,18.30
2017-11-15T17:58:21.417Z,18.30
2017-11-15T18:00:49.274Z,18.20
2017-11-15T18:03:17.170Z,18.20
2017-11-15T18:05:44.986Z,18.20
2017-11-15T18:08:13.625Z,18.20
2017-11-15T18:10:41.472Z,18.20
2017-11-15T18:13:10.301Z,18.20
2017-11-15T18:15:38.121Z,18.20
2017-11-15T18:18:05.934Z,18.10
2017-11-15T18:20:35.389Z,18.20
2017-11-15T18:23:03.276Z,18.10
2017-11-15T18:25:31.136Z,18.10
2017-11-15T18:27:58.977Z,18.10
2017-11-15T18:30:26.881Z,18.10
2017-11-15T18:32:54.846Z,18.10
2017-11-15T18:35:22.649Z,18.10
2017-11-15T18:37:50.612Z,18.10
2017-11-15T18:40:19.260Z,18.10
2017-11-15T18:42:47.479Z,18.00
2017-11-15T18:45:16.973Z,18.00
2017-11-15T18:47:44.856Z,18.00
2017-11-15T18:50:13.619Z,18.00
2017-11-15T18:52:41.799Z,18.00
2017-11-15T18:55:10.485Z,18.00
2017-11-15T18:57:38.464Z,18.00
2017-11-15T19:00:07.337Z,17.90
2017-11-15T19:02:35.315Z,17.90
2017-11-15T19:05:04.037Z,18.00
2017-11-15T19:07:32.049Z,17.90
2017-11-15T19:10:00.429Z,17.90
2017-11-15T19:12:28.273Z,17.90
2017-11-15T19:14:56.102Z,17.90
2017-11-15T19:17:25.717Z,17.90
2017-11-15T19:19:53.603Z,17.90
2017-11-15T19:22:21.500Z,17.80
2017-11-15T19:24:49.444Z,17.80
2017-11-15T19:27:17.367Z,17.80
2017-11-15T19:30:03.571Z,17.80
2017-11-15T19:32:31.496Z,17.80
2017-11-15T19:34:59.492Z,17.80
2017-11-15T19:37:27.496Z,17.80
2017-11-15T19:39:56.130Z,17.70
2017-11-15T19:42:24.030Z,17.70
2017-11-15T19:44:51.997Z,17.70
2017-11-15T19:47:21.077Z,17.70
2017-11-15T19:49:49.726Z,17.70
2017-11-15T19:52:17.581Z,17.70
2017-11-15T19:54:45.397Z,17.70
2017-11-15T19:57:13.408Z,17.60
2017-11-15T19:59:43.338Z,17.60
2017-11-15T20:02:12.389Z,17.60
2017-11-15T20:04:40.644Z,17.60
2017-11-15T20:07:09.186Z,17.60
2017-11-15T20:09:37.146Z,17.60
2017-11-15T20:12:04.986Z,17.60
2017-11-15T20:14:33.125Z,17.60
2017-11-15T20:17:01.167Z,17.60
2017-11-15T20:19:30.367Z,17.60
2017-11-15T20:22:01.320Z,17.60
2017-11-15T20:27:07.164Z,17.60
2017-11-15T20:29:35.062Z,17.60
2017-11-15T20:32:03.014Z,17.60
2017-11-15T20:34:31.177Z,17.60
2017-11-15T20:36:59.146Z,17.60
2017-11-15T20:39:29.333Z,17.50
2017-11-15T20:41:59.064Z,17.50
2017-11-15T20:44:26.999Z,17.50
2017-11-15T20:46:58.942Z,17.50
2017-11-15T20:49:29.928Z,17.50
2017-11-15T20:51:57.888Z,17.50
2017-11-15T20:54:27.329Z,17.50
2017-11-15T20:56:57.028Z,17.50
2017-11-15T20:59:25.180Z,17.40
2017-11-15T21:01:53.532Z,17.40
2017-11-15T21:04:23.153Z,17.40
2017-11-15T21:06:51.187Z,17.40
2017-11-15T21:09:23.724Z,17.40
2017-11-15T21:11:52.815Z,17.40
2017-11-15T21:14:21.976Z,17.40
2017-11-15T21:16:50.606Z,17.30
2017-11-15T21:19:18.766Z,17.30
2017-11-15T21:21:46.714Z,17.30
2017-11-15T21:24:15.122Z,17.20
2017-11-15T21:27:02.601Z,17.20
2017-11-15T21:29:30.672Z,17.20
2017-11-15T21:31:59.610Z,17.20
2017-11-15T21:34:27.538Z,17.20
2017-11-15T21:36:56.146Z,17.20
2017-11-15T21:39:23.974Z,17.20
2017-11-15T21:41:51.778Z,17.20
2017-11-15T21:44:19.732Z,17.20
2017-11-15T21:46:47.700Z,17.20
2017-11-15T21:49:15.653Z,17.20
2017-11-15T21:51:44.250Z,17.10
2017-11-15T21:54:12.952Z,17.10
2017-11-15T21:56:41.071Z,17.10
2017-11-15T21:59:08.921Z,17.10
2017-11-15T22:01:36.952Z,17.10
2017-11-15T22:04:04.845Z,17.10
2017-11-15T22:06:33.418Z,17.00
2017-11-15T22:09:01.364Z,17.00
2017-11-15T22:11:29.435Z,16.90
2017-11-15T22:13:57.229Z,16.90
2017-11-15T22:16:25.114Z,16.90
2017-11-15T22:18:52.947Z,16.90
2017-11-15T22:21:20.791Z,16.90
2017-11-15T22:23:48.646Z,16.80
2017-11-15T22:26:16.541Z,16.80
2017-11-15T22:28:44.371Z,16.80
2017-11-15T22:54:25.036Z,16.70
2017-11-15T23:00:14.643Z,16.60
2017-11-15T23:06:03.662Z,16.60
2017-11-15T23:08:31.990Z,16.60
2017-11-15T23:11:01.022Z,16.60
2017-11-15T23:13:28.952Z,16.60
2017-11-15T23:15:56.796Z,16.60
2017-11-15T23:21:34.661Z,16.60
2017-11-15T23:30:54.009Z,16.60
2017-11-15T23:33:24.703Z,16.60
2017-11-15T23:35:52.539Z,16.60
2017-11-15T23:38:20.444Z,16.50
2017-11-15T23:40:48.254Z,16.60
2017-11-15T23:43:17.709Z,16.50
2017-11-15T23:45:45.596Z,16.50
2017-11-15T23:48:13.475Z,16.50
2017-11-15T23:50:41.321Z,16.50
2017-11-15T23:53:09.421Z,16.40
2017-11-15T23:55:37.256Z,16.40
2017-11-15T23:58:05.148Z,16.40
